createdAt,value
2022-09-30T00:02:07.865Z,76.0
2022-09-30T00:04:38.571Z,76.0
2022-09-30T00:07:09.172Z,76.0
2022-09-30T00:09:39.852Z,76.0
2022-09-30T00:12:10.472Z,76.0
2022-09-30T00:14:51.092Z,76.0
2022-09-30T00:17:21.689Z,76.0
2022-09-30T00:19:52.263Z,76.0
2022-09-30T00:22:22.826Z,76.0
2022-09-30T00:24:53.429Z,76.0
2022-09-30T00:27:34.013Z,76.0
2022-09-30T00:30:04.659Z,76.0
2022-09-30T00:35:05.386Z,76.0
2022-09-30T00:37:40.869Z,76.0
2022-09-30T00:40:11.489Z,76.0
2022-09-30T00:42:52.072Z,77.0
2022-09-30T00:45:22.673Z,77.0
2022-09-30T00:47:53.274Z,77.0
2022-09-30T00:50:23.884Z,77.0
2022-09-30T00:52:54.487Z,77.0
2022-09-30T00:55:25.092Z,77.0
2022-09-30T01:00:35.933Z,76.0
2022-09-30T01:03:06.643Z,77.0
2022-09-30T01:05:37.223Z,77.0
2022-09-30T01:08:07.854Z,77.0
2022-09-30T01:10:38.451Z,77.0
2022-09-30T01:15:49.241Z,77.0
2022-09-30T01:20:50.076Z,77.0
2022-09-30T01:23:20.657Z,77.0
2022-09-30T01:25:51.253Z,77.0
2022-09-30T01:28:31.897Z,77.0
2022-09-30T01:31:02.494Z,77.0
2022-09-30T01:33:33.203Z,77.0
2022-09-30T01:36:03.777Z,76.0
2022-09-30T01:38:34.379Z,76.0
2022-09-30T01:41:14.960Z,76.0
2022-09-30T01:43:45.562Z,76.0
2022-09-30T01:46:16.174Z,76.0
2022-09-30T01:48:46.926Z,76.0
2022-09-30T01:51:27.525Z,76.0
2022-09-30T01:56:38.247Z,76.0
2022-09-30T01:59:08.843Z,76.0
2022-09-30T02:01:39.549Z,76.0
2022-09-30T02:04:10.319Z,77.0
2022-09-30T02:06:40.896Z,77.0
2022-09-30T02:09:11.663Z,77.0
2022-09-30T02:11:52.437Z,77.0
2022-09-30T02:14:23.044Z,77.0
2022-09-30T02:16:53.640Z,77.0
2022-09-30T02:19:24.263Z,76.0
2022-09-30T02:21:54.852Z,76.0
2022-09-30T02:24:25.441Z,76.0
2022-09-30T02:27:06.028Z,76.0
2022-09-30T02:29:36.642Z,77.0
2022-09-30T02:32:07.269Z,77.0
2022-09-30T02:37:07.997Z,77.0
2022-09-30T02:39:38.574Z,77.0
2022-09-30T02:42:19.178Z,77.0
2022-09-30T02:44:49.757Z,77.0
2022-09-30T02:47:20.329Z,77.0
2022-09-30T02:49:50.928Z,77.0
2022-09-30T02:52:21.535Z,77.0
2022-09-30T02:55:02.163Z,77.0
2022-09-30T02:57:32.707Z,77.0
2022-09-30T03:00:03.800Z,77.0
2022-09-30T03:02:35.215Z,77.0
2022-09-30T03:05:05.806Z,77.0
2022-09-30T03:07:36.381Z,77.0
2022-09-30T03:10:17.058Z,77.0
2022-09-30T03:12:47.644Z,77.0
2022-09-30T03:17:48.387Z,77.0
2022-09-30T03:20:18.987Z,77.0
2022-09-30T03:22:49.559Z,77.0
2022-09-30T03:25:30.230Z,77.0
2022-09-30T03:28:00.851Z,77.0
2022-09-30T03:30:34.881Z,77.0
2022-09-30T03:33:05.474Z,77.0
2022-09-30T03:35:36.055Z,77.0
2022-09-30T03:38:06.651Z,77.0
2022-09-30T03:40:47.247Z,77.0
2022-09-30T03:43:17.834Z,77.0
2022-09-30T03:45:48.426Z,77.0
2022-09-30T03:48:19.004Z,77.0
2022-09-30T03:50:49.596Z,77.0
2022-09-30T03:53:20.219Z,77.0
2022-09-30T03:58:30.964Z,77.0
2022-09-30T04:01:01.712Z,78.0
2022-09-30T04:03:32.453Z,77.0
2022-09-30T04:06:03.029Z,77.0
2022-09-30T04:08:44.207Z,77.0
2022-09-30T04:11:14.777Z,77.0
2022-09-30T04:13:45.357Z,77.0
2022-09-30T04:16:16.098Z,77.0
2022-09-30T04:18:46.859Z,77.0
2022-09-30T04:21:17.428Z,77.0
2022-09-30T04:23:58.016Z,77.0
2022-09-30T04:26:28.599Z,77.0
2022-09-30T04:28:59.210Z,77.0
2022-09-30T04:33:59.949Z,77.0
2022-09-30T04:39:10.689Z,77.0
2022-09-30T04:41:41.344Z,77.0
2022-09-30T04:44:11.938Z,77.0
2022-09-30T04:46:42.509Z,77.0
2022-09-30T04:49:16.862Z,77.0
2022-09-30T04:51:47.488Z,77.0
2022-09-30T04:54:28.106Z,77.0
2022-09-30T04:56:58.706Z,77.0
2022-09-30T04:59:29.351Z,77.0
2022-09-30T05:02:00.112Z,77.0
2022-09-30T05:04:30.793Z,77.0
2022-09-30T05:07:01.377Z,77.0
2022-09-30T05:09:42.022Z,77.0
2022-09-30T05:12:12.639Z,77.0
2022-09-30T05:14:43.234Z,77.0
2022-09-30T05:19:43.963Z,78.0
2022-09-30T05:22:24.554Z,78.0
2022-09-30T05:24:55.142Z,78.0
2022-09-30T05:29:55.904Z,78.0
2022-09-30T05:32:26.480Z,77.0
2022-09-30T05:34:57.062Z,77.0
2022-09-30T05:37:37.640Z,77.0
2022-09-30T05:40:08.232Z,77.0
2022-09-30T05:42:38.811Z,77.0
2022-09-30T05:45:09.387Z,77.0
2022-09-30T05:47:49.977Z,77.0
2022-09-30T05:50:20.588Z,77.0
2022-09-30T05:53:01.190Z,78.0
2022-09-30T05:55:34.705Z,78.0
2022-09-30T06:00:26.547Z,78.0
2022-09-30T06:02:57.394Z,78.0
2022-09-30T06:05:28.140Z,78.0
2022-09-30T06:08:08.763Z,78.0
2022-09-30T06:10:39.332Z,78.0
2022-09-30T06:13:09.906Z,78.0
2022-09-30T06:15:40.517Z,78.0
2022-09-30T06:18:13.670Z,78.0
2022-09-30T06:20:55.300Z,77.0
2022-09-30T06:23:25.894Z,78.0
2022-09-30T06:25:56.471Z,78.0
2022-09-30T06:28:27.090Z,77.0
2022-09-30T06:30:57.688Z,77.0
2022-09-30T06:33:28.271Z,77.0
2022-09-30T06:36:08.887Z,78.0
2022-09-30T06:41:09.621Z,78.0
2022-09-30T06:43:42.683Z,78.0
2022-09-30T06:46:26.271Z,77.0
2022-09-30T06:48:48.376Z,77.0
2022-09-30T06:51:19.633Z,77.0
2022-09-30T06:53:53.272Z,77.0
2022-09-30T06:56:23.914Z,77.0
2022-09-30T06:58:54.475Z,77.0
2022-09-30T07:01:25.306Z,77.0
2022-09-30T07:03:55.948Z,77.0
2022-09-30T07:06:36.621Z,77.0
2022-09-30T07:09:07.342Z,77.0
2022-09-30T07:11:38.006Z,77.0
2022-09-30T07:14:08.591Z,77.0
2022-09-30T07:24:19.620Z,77.0
2022-09-30T07:37:10.785Z,77.0
2022-09-30T07:39:41.369Z,77.0
2022-09-30T07:42:11.976Z,77.0
2022-09-30T07:47:14.998Z,77.0
2022-09-30T07:49:55.600Z,77.0
2022-09-30T07:52:26.213Z,77.0
2022-09-30T07:55:00.733Z,77.0
2022-09-30T07:57:21.989Z,77.0
2022-09-30T08:02:22.828Z,76.0
2022-09-30T08:05:03.598Z,76.0
2022-09-30T08:07:34.188Z,76.0
2022-09-30T08:10:04.916Z,76.0
2022-09-30T08:12:35.552Z,76.0
2022-09-30T08:15:06.161Z,76.0
2022-09-30T08:17:46.753Z,77.0
2022-09-30T08:20:23.229Z,76.0
2022-09-30T08:22:53.797Z,76.0
2022-09-30T08:25:24.361Z,76.0
2022-09-30T08:27:54.948Z,76.0
2022-09-30T08:30:25.545Z,76.0
2022-09-30T08:33:06.127Z,76.0
2022-09-30T08:35:36.742Z,76.0
2022-09-30T08:38:07.342Z,76.0
2022-09-30T08:43:08.186Z,75.0
2022-09-30T08:45:38.898Z,75.0
2022-09-30T08:48:19.716Z,74.0
2022-09-30T08:50:50.329Z,74.0
2022-09-30T08:53:20.945Z,74.0
2022-09-30T08:55:51.532Z,74.0
2022-09-30T08:58:22.128Z,73.0
2022-09-30T09:00:52.896Z,73.0
2022-09-30T09:03:33.639Z,73.0
2022-09-30T09:06:04.221Z,72.0
2022-09-30T09:08:34.816Z,72.0
2022-09-30T09:11:05.356Z,72.0
2022-09-30T09:13:35.982Z,71.0
2022-09-30T09:16:16.683Z,71.0
2022-09-30T09:18:47.401Z,70.0
2022-09-30T09:23:48.156Z,69.0
2022-09-30T09:26:18.748Z,68.0
2022-09-30T09:28:50.428Z,68.0
2022-09-30T09:34:03.918Z,67.0
2022-09-30T09:36:34.477Z,66.0
2022-09-30T09:39:05.083Z,66.0
2022-09-30T09:41:35.663Z,66.0
2022-09-30T09:44:06.268Z,66.0
2022-09-30T09:46:46.915Z,66.0
2022-09-30T09:49:17.512Z,65.0
2022-09-30T09:51:48.106Z,65.0
2022-09-30T09:56:48.845Z,65.0
2022-09-30T09:59:20.054Z,65.0
2022-09-30T10:07:01.537Z,65.0
2022-09-30T10:12:02.267Z,65.0
2022-09-30T10:14:42.901Z,65.0
2022-09-30T10:35:04.549Z,64.0
2022-09-30T10:45:15.587Z,64.0
2022-09-30T10:50:16.334Z,64.0
2022-09-30T10:55:24.874Z,64.0
2022-09-30T10:57:55.470Z,64.0
2022-09-30T11:00:26.070Z,64.0
2022-09-30T11:02:59.684Z,64.0
2022-09-30T11:05:30.411Z,64.0
2022-09-30T11:08:01.011Z,64.0
2022-09-30T11:10:31.614Z,64.0
2022-09-30T11:13:12.209Z,64.0
2022-09-30T11:15:42.822Z,63.0
2022-09-30T11:18:13.480Z,64.0
2022-09-30T11:20:44.097Z,63.0
2022-09-30T11:28:25.170Z,63.0
2022-09-30T11:30:55.833Z,63.0
2022-09-30T11:38:28.160Z,63.0
2022-09-30T11:40:58.742Z,63.0
2022-09-30T11:43:39.370Z,63.0
2022-09-30T11:46:10.239Z,64.0
2022-09-30T11:48:43.131Z,64.0
2022-09-30T11:51:13.689Z,64.0
2022-09-30T11:53:44.266Z,64.0
2022-09-30T11:56:24.870Z,64.0
2022-09-30T11:58:55.494Z,64.0
2022-09-30T12:01:26.063Z,64.0
2022-09-30T12:06:27.222Z,64.0
2022-09-30T12:11:38.226Z,63.0
2022-09-30T12:14:08.958Z,64.0
2022-09-30T12:16:39.980Z,64.0
2022-09-30T12:21:40.809Z,63.0
2022-09-30T12:24:11.382Z,63.0
2022-09-30T12:26:51.984Z,63.0
2022-09-30T12:29:22.569Z,63.0
2022-09-30T12:31:53.291Z,63.0
2022-09-30T12:34:24.103Z,63.0
2022-09-30T12:36:54.693Z,63.0
2022-09-30T12:39:25.286Z,63.0
2022-09-30T12:42:05.872Z,63.0
2022-09-30T12:47:06.624Z,63.0
2022-09-30T12:49:37.202Z,63.0
2022-09-30T13:04:58.402Z,63.0
2022-09-30T13:10:09.153Z,63.0
2022-09-30T13:15:12.197Z,63.0
2022-09-30T13:27:53.682Z,63.0
2022-09-30T13:30:24.375Z,63.0
2022-09-30T13:37:55.457Z,63.0
2022-09-30T13:41:02.087Z,63.0
2022-09-30T13:45:43.517Z,63.0
2022-09-30T13:48:14.225Z,63.0
2022-09-30T13:55:55.153Z,63.0
2022-09-30T13:58:25.771Z,63.0
2022-09-30T14:00:56.473Z,64.0
2022-09-30T14:03:27.294Z,63.0
2022-09-30T14:11:08.296Z,64.0
2022-09-30T14:16:09.219Z,64.0
2022-09-30T14:18:39.915Z,64.0
2022-09-30T14:23:50.666Z,64.0
2022-09-30T14:26:21.247Z,64.0
2022-09-30T14:31:22.390Z,64.0
2022-09-30T14:33:53.078Z,64.0
2022-09-30T14:36:23.691Z,64.0
2022-09-30T14:51:45.524Z,65.0
2022-09-30T14:56:46.606Z,65.0
2022-09-30T15:04:17.524Z,65.0
2022-09-30T15:09:38.413Z,65.0
2022-09-30T15:14:39.169Z,66.0
2022-09-30T15:19:39.894Z,65.0
2022-09-30T15:22:20.774Z,66.0
2022-09-30T15:24:51.661Z,66.0
2022-09-30T15:29:52.413Z,66.0
2022-09-30T15:32:22.981Z,66.0
2022-09-30T15:34:53.629Z,66.0
2022-09-30T15:37:34.238Z,66.0
2022-09-30T15:40:04.913Z,66.0
2022-09-30T15:42:35.558Z,66.0
2022-09-30T15:47:36.332Z,66.0
2022-09-30T15:50:16.940Z,66.0
2022-09-30T15:52:47.536Z,66.0
2022-09-30T15:55:18.121Z,66.0
2022-09-30T15:57:48.694Z,66.0
2022-09-30T16:00:19.314Z,66.0
2022-09-30T16:02:50.027Z,67.0
2022-09-30T16:05:30.739Z,67.0
2022-09-30T16:10:31.476Z,67.0
2022-09-30T16:15:32.246Z,67.0
2022-09-30T16:20:42.981Z,67.0
2022-09-30T16:43:34.760Z,68.0
2022-09-30T16:53:45.742Z,68.0
2022-09-30T16:56:16.330Z,68.0
2022-09-30T16:58:46.937Z,69.0
2022-09-30T17:01:17.634Z,69.0
2022-09-30T17:03:58.277Z,69.0
2022-09-30T17:06:28.923Z,69.0
2022-09-30T17:08:59.619Z,69.0
2022-09-30T17:11:30.276Z,69.0
2022-09-30T17:14:00.889Z,70.0
2022-09-30T17:16:31.881Z,70.0
2022-09-30T17:19:12.725Z,70.0
2022-09-30T17:21:43.284Z,70.0
2022-09-30T17:24:13.881Z,70.0
2022-09-30T17:26:44.854Z,70.0
2022-09-30T17:31:55.708Z,70.0
2022-09-30T17:34:26.321Z,70.0
2022-09-30T17:36:56.942Z,70.0
2022-09-30T17:39:28.589Z,70.0
2022-09-30T17:41:59.177Z,71.0
2022-09-30T17:44:29.790Z,70.0
2022-09-30T17:49:40.533Z,71.0
2022-09-30T17:52:11.158Z,71.0
2022-09-30T17:54:41.885Z,71.0
2022-09-30T17:57:13.113Z,71.0
2022-09-30T17:59:43.714Z,71.0
2022-09-30T18:02:24.462Z,71.0
2022-09-30T18:07:25.308Z,71.0
2022-09-30T18:12:26.023Z,71.0
2022-09-30T18:14:56.633Z,71.0
2022-09-30T18:17:37.225Z,71.0
2022-09-30T18:20:07.831Z,71.0
2022-09-30T18:22:41.151Z,71.0
2022-09-30T18:25:11.738Z,71.0
2022-09-30T18:27:42.337Z,71.0
2022-09-30T18:32:53.217Z,72.0
2022-09-30T18:37:53.941Z,72.0
2022-09-30T18:40:24.542Z,72.0
2022-09-30T18:42:55.129Z,72.0
2022-09-30T18:45:35.836Z,72.0
2022-09-30T18:48:06.497Z,72.0
2022-09-30T18:53:09.346Z,72.0
2022-09-30T18:55:40.341Z,72.0
2022-09-30T18:58:10.927Z,72.0
2022-09-30T19:00:51.645Z,72.0
2022-09-30T19:03:22.277Z,72.0
2022-09-30T19:05:52.865Z,72.0
2022-09-30T19:08:23.433Z,72.0
2022-09-30T19:10:54.000Z,72.0
2022-09-30T19:13:24.588Z,72.0
2022-09-30T19:16:05.220Z,72.0
2022-09-30T19:18:35.882Z,72.0
2022-09-30T19:21:06.449Z,72.0
2022-09-30T19:23:37.048Z,72.0
2022-09-30T19:28:37.782Z,72.0
2022-09-30T19:33:59.361Z,72.0
2022-09-30T19:36:25.173Z,72.0
2022-09-30T19:38:51.860Z,72.0
2022-09-30T19:41:22.306Z,72.0
2022-09-30T19:44:03.372Z,72.0
2022-09-30T19:46:33.934Z,72.0
2022-09-30T19:49:04.505Z,72.0
2022-09-30T19:51:35.420Z,72.0
2022-09-30T19:54:14.728Z,72.0
2022-09-30T19:56:35.904Z,72.0
2022-09-30T19:59:16.513Z,72.0
2022-09-30T20:14:37.798Z,73.0
2022-09-30T20:17:08.394Z,73.0
2022-09-30T20:19:38.983Z,73.0
2022-09-30T20:22:09.548Z,73.0
2022-09-30T20:24:40.295Z,73.0
2022-09-30T20:27:10.878Z,73.0
2022-09-30T20:29:51.509Z,73.0
2022-09-30T20:34:52.253Z,73.0
2022-09-30T20:37:22.830Z,73.0
2022-09-30T20:39:53.428Z,73.0
2022-09-30T20:45:04.184Z,73.0
2022-09-30T20:50:04.901Z,74.0
2022-09-30T20:55:05.647Z,74.0
2022-09-30T21:00:16.395Z,74.0
2022-09-30T21:05:17.108Z,74.0
2022-09-30T21:10:17.839Z,74.0
2022-09-30T21:15:28.603Z,74.0
2022-09-30T21:20:39.337Z,74.0
2022-09-30T21:23:09.925Z,74.0
2022-09-30T21:25:50.519Z,74.0
2022-09-30T21:28:21.255Z,74.0
2022-09-30T21:30:51.891Z,74.0
2022-09-30T21:35:52.610Z,74.0
2022-09-30T21:38:23.206Z,74.0
2022-09-30T21:41:03.815Z,74.0
2022-09-30T21:43:34.424Z,74.0
2022-09-30T21:46:05.113Z,74.0
2022-09-30T21:48:35.891Z,74.0
2022-09-30T21:51:06.493Z,74.0
2022-09-30T21:53:37.102Z,74.0
2022-09-30T21:58:47.839Z,74.0
2022-09-30T22:03:48.645Z,74.0
2022-09-30T22:06:19.253Z,74.0
2022-09-30T22:08:49.847Z,74.0
2022-09-30T22:11:30.992Z,74.0
2022-09-30T22:16:32.224Z,74.0
2022-09-30T22:19:02.901Z,75.0
2022-09-30T22:21:33.848Z,75.0
2022-09-30T22:24:14.567Z,75.0
2022-09-30T22:26:45.139Z,75.0
2022-09-30T22:29:15.744Z,74.0
2022-09-30T22:31:46.969Z,74.0
2022-09-30T22:34:17.716Z,75.0
2022-09-30T22:36:48.281Z,75.0
2022-09-30T22:41:59.023Z,75.0
2022-09-30T22:44:29.632Z,75.0
2022-09-30T22:47:00.304Z,75.0
2022-09-30T22:49:30.935Z,75.0
2022-09-30T22:52:01.514Z,75.0
2022-09-30T22:57:12.271Z,75.0
2022-09-30T22:59:42.900Z,75.0
2022-09-30T23:02:13.616Z,75.0
2022-09-30T23:04:44.456Z,75.0
2022-09-30T23:07:15.051Z,75.0
2022-09-30T23:09:55.654Z,75.0
2022-09-30T23:12:26.232Z,75.0
2022-09-30T23:14:56.837Z,75.0
2022-09-30T23:17:27.427Z,75.0
2022-09-30T23:19:58.044Z,75.0
2022-09-30T23:22:38.643Z,75.0
2022-09-30T23:25:09.232Z,75.0
2022-09-30T23:27:39.802Z,75.0
2022-09-30T23:30:10.504Z,75.0
2022-09-30T23:32:41.102Z,75.0
2022-09-30T23:37:51.827Z,75.0
2022-09-30T23:40:22.429Z,75.0
2022-09-30T23:42:53.021Z,75.0
2022-09-30T23:45:33.649Z,75.0
2022-09-30T23:48:04.392Z,75.0
2022-09-30T23:50:34.978Z,75.0
2022-09-30T23:53:15.565Z,75.0
2022-09-30T23:55:46.166Z,75.0
2022-09-30T23:58:16.746Z,75.0
